createdAt,value
2017-06-01T00:13:33.898Z,102375.66
2017-06-01T00:19:02.478Z,102372.70
2017-06-01T00:21:28.654Z,102371.91
2017-06-01T00:23:54.861Z,102374.09
2017-06-01T00:26:21.047Z,102376.83
2017-06-01T00:28:47.315Z,102372.82
2017-06-01T00:34:09.971Z,102369.22
2017-06-01T00:36:36.142Z,102370.13
2017-06-01T00:39:02.393Z,102375.56
2017-06-01T00:41:28.566Z,102376.03
2017-06-01T00:43:55.022Z,102378.34
2017-06-01T00:55:10.633Z,102387.38
2017-06-01T00:57:36.868Z,102391.45
2017-06-01T01:00:03.070Z,102394.59
2017-06-01T01:14:15.331Z,102394.59
2017-06-01T01:34:20.461Z,102387.89
2017-06-01T01:36:46.649Z,102386.55
2017-06-01T01:39:12.900Z,102383.92
2017-06-01T01:41:39.090Z,102388.02
2017-06-01T01:44:05.293Z,102383.05
2017-06-01T01:55:21.050Z,102384.92
2017-06-01T01:57:47.333Z,102382.70
2017-06-01T02:00:13.599Z,102382.71
2017-06-01T02:14:25.754Z,102377.53
2017-06-01T02:34:31.390Z,102378.09
2017-06-01T02:36:57.637Z,102381.26
2017-06-01T02:39:23.814Z,102381.30
2017-06-01T02:41:50.060Z,102378.28
2017-06-01T02:44:16.282Z,102377.34
2017-06-01T02:55:32.017Z,102373.85
2017-06-01T02:57:59.038Z,102374.80
2017-06-01T03:00:25.262Z,102372.07
2017-06-01T03:11:41.541Z,102369.42
2017-06-01T03:14:07.782Z,102371.63
2017-06-01T03:16:34.062Z,102366.72
2017-06-01T03:19:00.332Z,102377.41
2017-06-01T03:21:26.522Z,102374.29
2017-06-01T03:23:52.818Z,102367.95
2017-06-01T03:26:19.160Z,102369.34
2017-06-01T03:28:45.420Z,102372.47
2017-06-01T03:31:11.682Z,102372.98
2017-06-01T03:36:34.385Z,102366.25
2017-06-01T03:39:00.615Z,102370.29
2017-06-01T03:41:26.884Z,102375.23
2017-06-01T03:43:53.113Z,102370.77
2017-06-01T03:46:19.383Z,102374.33
2017-06-01T03:57:35.214Z,102367.95
2017-06-01T04:00:01.511Z,102373.50
2017-06-01T04:17:10.406Z,102386.41
2017-06-01T04:19:36.585Z,102383.30
2017-06-01T04:22:02.783Z,102384.16
2017-06-01T04:24:29.060Z,102381.52
2017-06-01T04:26:55.254Z,102381.98
2017-06-01T04:29:21.435Z,102381.98
2017-06-01T04:37:41.378Z,102390.19
2017-06-01T04:40:07.575Z,102392.45
2017-06-01T04:42:33.786Z,102395.17
2017-06-01T04:45:00.087Z,102394.74
2017-06-01T04:56:40.098Z,102397.44
2017-06-01T04:59:06.364Z,102398.66
2017-06-01T05:01:32.522Z,102393.27
2017-06-01T05:15:44.731Z,102396.00
2017-06-01T05:27:06.753Z,102410.38
2017-06-01T05:29:32.996Z,102398.86
2017-06-01T05:34:55.886Z,102407.88
2017-06-01T05:37:22.315Z,102404.17
2017-06-01T05:39:48.532Z,102406.98
2017-06-01T05:42:14.710Z,102412.47
2017-06-01T05:44:40.939Z,102419.73
2017-06-01T05:50:09.526Z,102413.48
2017-06-01T05:52:35.685Z,102414.82
2017-06-01T05:55:01.954Z,102413.86
2017-06-01T05:57:28.112Z,102416.31
2017-06-01T05:59:54.332Z,102415.03
2017-06-01T06:14:06.454Z,102419.64
2017-06-01T06:16:32.697Z,102419.34
2017-06-01T06:33:41.442Z,102420.65
2017-06-01T06:36:07.593Z,102419.32
2017-06-01T06:38:33.746Z,102413.52
2017-06-01T06:41:00.023Z,102417.65
2017-06-01T06:43:26.221Z,102414.19
2017-06-01T06:45:52.474Z,102410.90
2017-06-01T06:54:11.857Z,102419.55
2017-06-01T06:56:38.018Z,102417.56
2017-06-01T06:59:04.165Z,102418.80
2017-06-01T07:01:30.368Z,102423.13
2017-06-01T07:13:11.493Z,102416.10
2017-06-01T07:15:37.776Z,102406.98
2017-06-01T07:18:09.938Z,102415.67
2017-06-01T07:20:36.103Z,102414.19
2017-06-01T07:23:02.365Z,102410.02
2017-06-01T07:25:28.585Z,102404.89
2017-06-01T07:27:54.788Z,102401.66
2017-06-01T07:30:21.024Z,102402.85
2017-06-01T07:32:47.197Z,102401.36
2017-06-01T07:35:13.486Z,102402.13
2017-06-01T07:37:39.648Z,102411.42
2017-06-01T07:40:05.810Z,102402.34
2017-06-01T07:42:32.033Z,102400.41
2017-06-01T07:44:58.192Z,102398.55
2017-06-01T07:47:24.417Z,102402.47
2017-06-01T07:52:47.212Z,102399.96
2017-06-01T07:55:13.413Z,102402.06
2017-06-01T07:57:39.594Z,102398.35
2017-06-01T08:00:05.766Z,102402.23
2017-06-01T08:02:31.951Z,102403.03
2017-06-01T08:13:47.762Z,102398.06
2017-06-01T08:16:13.951Z,102396.17
2017-06-01T08:33:22.509Z,102390.13
2017-06-01T08:35:48.741Z,102388.27
2017-06-01T08:38:14.903Z,102397.19
2017-06-01T08:53:17.611Z,102386.14
2017-06-01T08:55:43.766Z,102386.46
2017-06-01T08:58:09.941Z,102384.12
2017-06-01T09:00:36.306Z,102382.74
2017-06-01T09:03:08.452Z,102375.09
2017-06-01T09:05:34.655Z,102371.81
2017-06-01T09:08:00.862Z,102367.73
2017-06-01T09:10:27.029Z,102366.74
2017-06-01T09:12:53.281Z,102365.78
2017-06-01T09:15:19.507Z,102365.27
2017-06-01T09:17:45.725Z,102358.89
2017-06-01T09:31:58.128Z,102358.09
2017-06-01T09:52:09.934Z,102352.83
2017-06-01T09:54:36.209Z,102349.17
2017-06-01T09:57:02.377Z,102346.31
2017-06-01T09:59:28.638Z,102343.15
2017-06-01T10:01:54.794Z,102345.25
2017-06-01T10:13:10.553Z,102336.40
2017-06-01T10:15:36.769Z,102328.20
2017-06-01T10:18:02.925Z,102330.89
2017-06-01T10:32:15.047Z,102318.55
2017-06-01T10:53:18.210Z,102306.24
2017-06-01T10:55:44.371Z,102304.81
2017-06-01T10:58:10.638Z,102305.60
2017-06-01T11:00:36.824Z,102297.39
2017-06-01T11:03:03.021Z,102293.66
2017-06-01T11:14:19.988Z,102286.94
2017-06-01T11:16:46.174Z,102288.67
2017-06-01T11:22:14.651Z,102283.16
2017-06-01T11:24:40.917Z,102277.77
2017-06-01T11:27:07.857Z,102279.55
2017-06-01T11:29:34.098Z,102278.12
2017-06-01T11:32:00.297Z,102281.16
2017-06-01T11:34:27.199Z,102273.95
2017-06-01T11:36:53.362Z,102282.38
2017-06-01T11:39:20.370Z,102281.47
2017-06-01T11:41:47.311Z,102271.99
2017-06-01T11:44:13.473Z,102276.03
2017-06-01T11:46:39.665Z,102269.69
2017-06-01T11:49:11.676Z,102267.90
2017-06-01T11:51:37.922Z,102266.42
2017-06-01T11:54:04.877Z,102265.52
2017-06-01T11:56:31.035Z,102268.59
2017-06-01T11:58:57.224Z,102259.16
2017-06-01T12:01:23.398Z,102267.20
2017-06-01T12:03:49.669Z,102257.37
2017-06-01T12:12:15.448Z,102251.59
2017-06-01T12:14:41.703Z,102251.25
2017-06-01T12:17:07.931Z,102246.30
2017-06-01T12:25:27.261Z,102241.42
2017-06-01T12:27:53.440Z,102244.65
2017-06-01T12:30:19.592Z,102242.00
2017-06-01T12:32:45.790Z,102245.04
2017-06-01T12:35:12.001Z,102240.21
2017-06-01T12:37:38.266Z,102233.64
2017-06-01T12:40:04.494Z,102229.43
2017-06-01T12:42:30.705Z,102228.52
2017-06-01T12:44:56.906Z,102232.95
2017-06-01T12:47:23.066Z,102233.52
2017-06-01T12:55:43.005Z,102229.78
2017-06-01T12:58:10.138Z,102216.30
2017-06-01T13:00:38.054Z,102222.08
2017-06-01T13:03:05.087Z,102217.91
2017-06-01T13:14:45.008Z,102206.55
2017-06-01T13:17:11.159Z,102211.86
2017-06-01T13:34:20.619Z,102201.86
2017-06-01T13:54:26.370Z,102190.23
2017-06-01T13:56:52.537Z,102183.88
2017-06-01T13:59:18.771Z,102191.12
2017-06-01T14:01:44.991Z,102194.95
2017-06-01T14:04:11.157Z,102187.34
2017-06-01T14:15:27.584Z,102179.14
2017-06-01T14:17:53.859Z,102173.47
2017-06-01T14:29:15.413Z,102157.88
2017-06-01T14:31:41.667Z,102159.91
2017-06-01T14:34:07.878Z,102152.94
2017-06-01T14:36:34.105Z,102150.02
2017-06-01T14:39:00.276Z,102152.14
2017-06-01T14:41:26.538Z,102142.94
2017-06-01T14:43:52.906Z,102138.61
2017-06-01T14:46:19.113Z,102143.91
2017-06-01T14:48:45.334Z,102140.69
2017-06-01T14:54:14.060Z,102132.62
2017-06-01T14:56:40.295Z,102131.56
2017-06-01T14:59:06.508Z,102129.59
2017-06-01T15:01:32.869Z,102125.92
2017-06-01T15:03:59.068Z,102128.14
2017-06-01T15:15:40.382Z,102116.67
2017-06-01T15:18:06.677Z,102118.27
2017-06-01T15:35:15.701Z,102096.53
2017-06-01T15:37:41.973Z,102099.48
2017-06-01T15:40:08.321Z,102096.73
2017-06-01T15:42:34.447Z,102090.72
2017-06-01T15:45:00.634Z,102085.56
2017-06-01T15:47:26.910Z,102091.39
2017-06-01T15:49:53.150Z,102089.80
2017-06-01T15:55:16.002Z,102093.20
2017-06-01T15:57:42.226Z,102093.97
2017-06-01T16:00:08.466Z,102099.42
2017-06-01T16:02:34.707Z,102092.38
2017-06-01T16:05:01.091Z,102091.06
2017-06-01T16:16:17.138Z,102087.76
2017-06-01T16:18:43.302Z,102078.36
2017-06-01T16:21:15.446Z,102071.47
2017-06-01T16:23:41.668Z,102070.60
2017-06-01T16:26:07.942Z,102076.67
2017-06-01T16:28:34.118Z,102072.62
2017-06-01T16:31:00.285Z,102069.01
2017-06-01T16:33:26.517Z,102064.52
2017-06-01T16:35:52.744Z,102065.01
2017-06-01T16:38:19.250Z,102063.61
2017-06-01T16:40:45.459Z,102057.63
2017-06-01T16:43:11.632Z,102057.73
2017-06-01T16:45:37.896Z,102060.33
2017-06-01T16:48:04.125Z,102056.33
2017-06-01T16:56:23.538Z,102048.19
2017-06-01T16:58:49.766Z,102049.82
2017-06-01T17:01:15.941Z,102044.42
2017-06-01T17:03:42.152Z,102041.39
2017-06-01T17:06:14.287Z,102043.99
2017-06-01T17:08:40.503Z,102051.27
2017-06-01T17:11:06.697Z,102049.77
2017-06-01T17:13:32.869Z,102044.21
2017-06-01T17:15:59.066Z,102045.17
2017-06-01T17:18:25.366Z,102044.06
2017-06-01T17:35:33.931Z,102037.97
2017-06-01T17:55:39.327Z,102017.58
2017-06-01T17:58:05.518Z,102022.84
2017-06-01T18:00:31.687Z,102019.14
2017-06-01T18:02:57.855Z,102017.72
2017-06-01T18:05:24.115Z,102012.60
2017-06-01T18:16:39.813Z,102018.48
2017-06-01T18:19:06.091Z,102017.44
2017-06-01T18:36:14.853Z,102001.33
2017-06-01T18:38:41.033Z,102003.02
2017-06-01T18:41:07.244Z,102000.94
2017-06-01T18:43:33.467Z,102000.28
2017-06-01T18:45:59.831Z,102000.27
2017-06-01T18:48:25.997Z,101996.95
2017-06-01T18:50:52.195Z,102001.80
2017-06-01T18:56:15.015Z,101996.59
2017-06-01T18:58:41.252Z,101997.22
2017-06-01T19:01:07.446Z,101994.17
2017-06-01T19:03:33.633Z,101994.95
2017-06-01T19:15:16.952Z,101986.86
2017-06-01T19:17:43.174Z,101992.70
2017-06-01T19:20:09.398Z,101991.45
2017-06-01T19:34:21.708Z,101999.61
2017-06-01T19:54:26.832Z,102002.05
2017-06-01T19:56:52.994Z,102000.41
2017-06-01T19:59:19.161Z,102004.97
2017-06-01T20:01:45.374Z,102010.56
2017-06-01T20:04:11.704Z,102010.00
2017-06-01T20:15:45.802Z,102012.27
2017-06-01T20:18:12.030Z,102009.16
2017-06-01T20:20:38.303Z,102016.93
2017-06-01T20:34:52.396Z,102023.27
2017-06-01T20:43:17.390Z,102009.03
2017-06-01T20:45:43.759Z,102013.37
2017-06-01T20:48:09.971Z,102011.55
2017-06-01T20:50:36.136Z,102019.55
2017-06-01T20:55:59.373Z,102019.48
2017-06-01T20:58:26.333Z,102018.87
2017-06-01T21:00:52.565Z,102024.16
2017-06-01T21:03:18.932Z,102024.03
2017-06-01T21:05:45.104Z,102019.46
2017-06-01T21:08:17.251Z,102027.50
2017-06-01T21:10:43.505Z,102021.62
2017-06-01T21:13:09.735Z,102020.72
2017-06-01T21:15:35.898Z,102022.45
2017-06-01T21:18:02.111Z,102021.48
2017-06-01T21:20:28.381Z,102019.75
2017-06-01T21:34:40.585Z,102020.28
2017-06-01T21:54:45.803Z,102014.03
2017-06-01T21:57:12.135Z,102010.55
2017-06-01T21:59:38.313Z,102015.81
2017-06-01T22:02:04.540Z,102008.59
2017-06-01T22:04:30.734Z,102011.33
2017-06-01T22:06:56.914Z,102007.28
2017-06-01T22:19:03.187Z,101999.82
2017-06-01T22:21:29.362Z,102002.52
2017-06-01T22:35:41.667Z,101999.25
2017-06-01T22:56:37.329Z,101975.70
2017-06-01T22:59:03.529Z,101985.53
2017-06-01T23:01:29.746Z,101981.48
2017-06-01T23:03:55.938Z,101985.53
2017-06-01T23:06:22.201Z,101982.41
2017-06-01T23:17:37.958Z,101974.31
2017-06-01T23:20:04.206Z,101967.62
2017-06-01T23:37:12.772Z,101965.06
2017-06-01T23:57:18.205Z,101946.00
2017-06-01T23:59:44.415Z,101941.09
